Time;durP1;ratioP1;P1;durP2;ratioP2;P2;SDS_P1;SDS_P2;PMS_P1;PMS_P2;Temp;Humidity;BMP_temperature;BMP_pressure;BME280_temperature;BME280_humidity;BME280_pressure;Samples;Min_cycle;Max_cycle;Signal;HPM_P1;HPM_P2
2022/11/25 00:01:22;;;;;;;4.18;0.90;;;31.00;46.00;;;;;;5012844;28;20029;-60
2022/11/25 00:03:50;;;;;;;3.15;1.00;;;31.30;48.30;;;;;;5010265;28;20034;-61
2022/11/25 00:06:20;;;;;;;4.15;0.70;;;31.10;46.20;;;;;;5013438;28;20061;-60
2022/11/25 00:08:50;;;;;;;2.55;0.60;;;31.00;47.20;;;;;;5008530;28;20022;-61
2022/11/25 00:11:18;;;;;;;0.65;0.30;;;31.50;44.60;;;;;;5023321;28;20494;-61
2022/11/25 00:13:47;;;;;;;3.45;0.75;;;31.30;45.40;;;;;;5009104;28;20480;-60
2022/11/25 00:16:17;;;;;;;1.45;0.63;;;31.30;43.20;;;;;;5010177;28;20064;-60
2022/11/25 00:18:46;;;;;;;4.50;0.95;;;31.10;43.00;;;;;;5009763;28;20037;-61
2022/11/25 00:21:15;;;;;;;6.13;0.75;;;31.00;46.60;;;;;;5007552;28;20496;-60
2022/11/25 00:23:43;;;;;;;2.33;0.90;;;30.70;46.50;;;;;;5014212;28;20534;-61
2022/11/25 00:26:13;;;;;;;1.63;0.50;;;31.10;47.20;;;;;;5012001;28;20033;-61
2022/11/25 00:28:44;;;;;;;6.63;0.70;;;31.30;44.30;;;;;;5009860;28;20117;-61
2022/11/25 00:31:15;;;;;;;1.85;0.65;;;31.20;43.40;;;;;;5007803;28;20026;-60
2022/11/25 00:33:43;;;;;;;2.15;0.60;;;30.90;46.90;;;;;;5009560;28;20049;-61
2022/11/25 00:36:16;;;;;;;5.70;1.02;;;31.10;47.00;;;;;;5009562;28;20026;-60
2022/11/25 00:38:44;;;;;;;2.55;0.73;;;31.20;45.60;;;;;;5011695;28;20026;-60
2022/11/25 00:46:43;;;;;;;2.05;0.60;;;31.50;46.00;;;;;;5012027;28;20462;-61
2022/11/25 00:49:10;;;;;;;3.63;0.73;;;31.60;44.80;;;;;;5021971;28;20505;-61
2022/11/25 00:51:37;;;;;;;3.85;0.85;;;31.60;43.70;;;;;;5011006;28;20085;-61
2022/11/25 00:54:05;;;;;;;1.08;0.60;;;31.60;42.70;;;;;;5016198;28;20018;-60
2022/11/25 00:56:32;;;;;;;4.32;0.93;;;31.30;44.70;;;;;;5013437;28;20096;-60
2022/11/25 00:58:59;;;;;;;4.03;0.60;;;31.60;45.20;;;;;;5011760;28;20029;-60
2022/11/25 01:01:27;;;;;;;3.38;0.63;;;32.00;44.80;;;;;;5010328;28;20022;-61
2022/11/25 01:03:54;;;;;;;2.60;0.65;;;32.60;46.40;;;;;;5015739;28;20070;-62
2022/11/25 01:06:21;;;;;;;2.80;0.60;;;32.80;44.40;;;;;;5023189;28;20018;-61
2022/11/25 01:08:49;;;;;;;4.60;0.88;;;32.10;43.00;;;;;;5017507;28;20029;-60
2022/11/25 01:11:19;;;;;;;1.65;0.65;;;31.50;43.50;;;;;;5006580;28;20022;-60
2022/11/25 01:13:46;;;;;;;2.50;0.70;;;31.50;44.00;;;;;;5014220;28;20088;-61
2022/11/25 01:16:16;;;;;;;3.13;0.80;;;31.40;43.80;;;;;;5008909;28;20055;-60
2022/11/25 01:18:44;;;;;;;8.75;0.85;;;31.80;43.70;;;;;;5006917;28;20380;-60
2022/11/25 01:21:14;;;;;;;3.83;0.80;;;32.10;42.20;;;;;;5005801;28;20021;-61
2022/11/25 01:23:44;;;;;;;3.95;0.70;;;31.70;43.20;;;;;;5014797;28;20507;-61
2022/11/25 01:26:14;;;;;;;8.18;1.00;;;32.00;42.40;;;;;;5006883;28;20026;-61
2022/11/25 01:28:41;;;;;;;1.83;0.50;;;32.20;42.70;;;;;;5010946;28;20103;-61
2022/11/25 01:31:16;;;;;;;1.77;0.60;;;32.10;43.30;;;;;;5008752;28;20030;-61
2022/11/25 01:33:44;;;;;;;3.28;0.73;;;32.40;43.70;;;;;;5011732;28;20104;-62
2022/11/25 01:36:16;;;;;;;3.75;0.50;;;32.40;42.40;;;;;;5014737;28;20592;-62
2022/11/25 01:38:44;;;;;;;2.13;0.60;;;32.30;42.00;;;;;;5017835;28;20061;-62
2022/11/25 01:41:13;;;;;;;2.92;0.80;;;32.10;42.00;;;;;;5009747;28;20029;-62
2022/11/25 01:43:41;;;;;;;3.97;1.35;;;31.90;41.20;;;;;;5012119;28;20100;-63
2022/11/25 01:46:50;;;;;;;4.10;0.70;;;31.80;42.00;;;;;;5012028;28;20079;-63
2022/11/25 01:49:26;;;;;;;2.63;0.70;;;31.00;41.60;;;;;;5015605;28;20037;-63
2022/11/25 01:51:56;;;;;;;9.95;1.00;;;31.30;44.50;;;;;;5020705;28;20494;-63
2022/11/25 01:54:27;;;;;;;3.28;0.57;;;31.60;42.70;;;;;;5022265;28;20033;-62
2022/11/25 01:57:01;;;;;;;2.95;0.52;;;31.70;42.70;;;;;;5020627;28;20029;-62
2022/11/25 01:59:32;;;;;;;2.05;0.70;;;31.80;41.20;;;;;;5012048;28;20106;-61
2022/11/25 02:02:00;;;;;;;1.00;0.40;;;32.30;43.00;;;;;;5005394;28;20037;-63
2022/11/25 02:04:32;;;;;;;1.35;0.47;;;32.90;39.60;;;;;;5010878;28;20092;-62
2022/11/25 02:07:10;;;;;;;2.08;0.80;;;33.20;39.30;;;;;;5012023;28;20033;-61
2022/11/25 02:09:40;;;;;;;3.67;1.33;;;32.80;41.70;;;;;;5015747;28;20052;-61
2022/11/25 02:12:08;;;;;;;2.38;0.70;;;32.80;40.40;;;;;;5012112;28;20034;-62
2022/11/25 02:14:35;;;;;;;2.22;0.60;;;32.40;41.00;;;;;;5012296;28;20052;-63
2022/11/25 02:17:03;;;;;;;7.10;1.23;;;32.00;41.70;;;;;;5005898;28;20026;-62
2022/11/25 02:20:03;;;;;;;2.05;0.50;;;32.20;43.50;;;;;;5010824;28;20033;-62
2022/11/25 02:22:54;;;;;;;5.15;0.90;;;32.20;39.30;;;;;;5005873;28;20084;-62
2022/11/25 02:25:30;;;;;;;1.33;0.50;;;32.00;40.70;;;;;;5006493;28;20025;-61
2022/11/25 02:28:08;;;;;;;1.00;0.40;;;31.80;38.70;;;;;;5004732;28;20430;-62
2022/11/25 02:30:35;;;;;;;6.43;0.60;;;31.30;40.20;;;;;;5000986;28;20479;-64
2022/11/25 02:33:03;;;;;;;3.45;0.60;;;31.60;41.20;;;;;;4996537;28;20053;-62
2022/11/25 02:35:39;;;;;;;3.53;0.60;;;31.90;40.80;;;;;;4999767;28;20487;-60
2022/11/25 02:38:20;;;;;;;2.45;0.57;;;32.40;39.50;;;;;;5004327;28;20026;-61
2022/11/25 02:40:56;;;;;;;3.53;0.63;;;32.70;40.30;;;;;;4999899;28;20376;-60
2022/11/25 02:43:23;;;;;;;2.83;0.40;;;32.20;39.10;;;;;;5001483;28;20026;-62
2022/11/25 02:45:57;;;;;;;1.52;0.50;;;32.40;38.80;;;;;;5002564;28;20025;-62
2022/11/25 02:48:26;;;;;;;1.02;0.45;;;32.60;38.90;;;;;;5000551;28;20026;-62
2022/11/25 02:50:54;;;;;;;6.65;0.60;;;32.30;39.00;;;;;;5004349;28;20025;-62
2022/11/25 02:53:21;;;;;;;2.63;0.40;;;32.00;38.60;;;;;;5002519;28;20040;-63
2022/11/25 02:55:49;;;;;;;2.60;0.80;;;32.20;41.90;;;;;;5004710;28;20030;-63
2022/11/25 02:58:17;;;;;;;1.33;0.50;;;32.60;41.30;;;;;;5002980;28;20529;-63
2022/11/25 03:00:44;;;;;;;3.80;0.60;;;32.50;39.50;;;;;;5004544;28;20022;-60
2022/11/25 03:03:12;;;;;;;2.40;1.08;;;32.40;40.70;;;;;;5004224;28;20026;-62
2022/11/25 03:05:39;;;;;;;2.13;0.65;;;31.90;38.50;;;;;;5006064;28;20022;-61
2022/11/25 03:08:08;;;;;;;2.53;0.57;;;32.10;42.00;;;;;;5016129;28;20028;-62
2022/11/25 03:10:36;;;;;;;2.33;0.60;;;32.60;46.00;;;;;;5023112;28;20105;-62
2022/11/25 03:13:04;;;;;;;1.67;0.55;;;33.20;39.90;;;;;;5013196;28;20049;-65
2022/11/25 03:15:32;;;;;;;3.83;0.70;;;33.90;41.60;;;;;;5008351;28;20564;-63
2022/11/25 03:17:59;;;;;;;0.68;0.40;;;33.60;38.70;;;;;;5004821;28;20021;-61
2022/11/25 03:20:26;;;;;;;0.63;0.32;;;33.90;40.10;;;;;;5020422;28;20030;-61
2022/11/25 03:22:54;;;;;;;5.40;0.80;;;34.30;38.00;;;;;;5023058;28;20027;-62
2022/11/25 03:25:21;;;;;;;3.58;0.68;;;34.20;37.30;;;;;;5018084;28;20030;-62
2022/11/25 03:27:49;;;;;;;3.28;0.75;;;33.90;37.30;;;;;;5003641;28;20562;-62
2022/11/25 03:30:22;;;;;;;12.80;2.28;;;33.80;37.10;;;;;;5002468;28;20084;-63
2022/11/25 03:32:49;;;;;;;3.50;1.48;;;33.50;42.10;;;;;;5003471;28;20333;-65
2022/11/25 03:35:17;;;;;;;4.13;1.80;;;33.00;42.90;;;;;;5006303;28;20089;-61
2022/11/25 03:37:45;;;;;;;5.60;2.30;;;32.50;41.00;;;;;;5001999;28;20057;-62
2022/11/25 03:40:14;;;;;;;7.97;2.97;;;31.70;44.20;;;;;;5001337;28;20021;-61
2022/11/25 03:42:42;;;;;;;10.38;3.22;;;30.20;49.50;;;;;;5002060;28;20092;-61
2022/11/25 03:45:11;;;;;;;9.52;3.28;;;29.90;52.40;;;;;;5002590;28;20554;-61
2022/11/25 03:47:40;;;;;;;6.05;2.63;;;29.60;52.00;;;;;;5004836;28;20037;-61
2022/11/25 03:50:08;;;;;;;7.93;2.92;;;28.70;54.50;;;;;;5004248;28;20022;-62
2022/11/25 03:52:35;;;;;;;12.10;3.25;;;28.30;56.80;;;;;;5008341;28;20119;-62
2022/11/25 03:55:03;;;;;;;9.43;3.10;;;28.30;57.40;;;;;;5009284;28;20033;-61
2022/11/25 03:57:30;;;;;;;5.28;2.92;;;28.80;55.90;;;;;;5021293;28;20029;-61
2022/11/25 03:59:57;;;;;;;8.23;3.30;;;28.90;55.10;;;;;;5012468;28;20386;-63
2022/11/25 04:02:24;;;;;;;5.93;3.00;;;29.20;54.90;;;;;;5004395;28;20192;-62
2022/11/25 04:04:51;;;;;;;5.93;2.75;;;29.40;56.00;;;;;;5005692;28;20383;-62
2022/11/25 04:07:19;;;;;;;8.45;3.53;;;28.50;56.70;;;;;;5019006;28;20087;-61
2022/11/25 04:09:46;;;;;;;18.23;3.15;;;28.10;58.30;;;;;;5013937;28;20176;-62
2022/11/25 04:14:59;;;;;;;8.70;2.92;;;28.10;58.60;;;;;;5021500;28;20053;-61
2022/11/25 04:17:26;;;;;;;11.32;2.90;;;27.80;60.00;;;;;;5008346;28;20515;-62
2022/11/25 04:19:53;;;;;;;11.88;3.25;;;27.70;60.00;;;;;;5008339;28;20033;-62
2022/11/25 04:22:20;;;;;;;8.07;3.08;;;27.40;60.40;;;;;;5009313;28;20034;-62
2022/11/25 04:24:47;;;;;;;9.05;4.50;;;26.60;63.20;;;;;;5007974;28;20022;-62
2022/11/25 04:27:15;;;;;;;8.52;3.50;;;26.60;64.00;;;;;;5009573;28;20026;-61
2022/11/25 04:29:42;;;;;;;11.23;2.85;;;26.60;64.20;;;;;;5011108;28;20117;-61
2022/11/25 04:32:09;;;;;;;6.68;3.22;;;26.60;64.00;;;;;;5011385;28;20454;-61
2022/11/25 04:34:36;;;;;;;7.30;3.17;;;26.80;65.10;;;;;;5008772;28;20050;-67
2022/11/25 04:37:04;;;;;;;10.73;3.25;;;27.00;64.50;;;;;;4998690;28;20050;-66
2022/11/25 04:39:31;;;;;;;9.77;4.18;;;27.10;63.20;;;;;;5011631;28;20022;-66
2022/11/25 04:44:43;;;;;;;12.43;3.97;;;26.90;62.90;;;;;;5011738;28;20087;-66
2022/11/25 04:47:10;;;;;;;5.68;3.17;;;26.90;63.20;;;;;;5011432;28;20026;-67
2022/11/25 04:49:38;;;;;;;7.20;2.88;;;26.80;62.80;;;;;;4990726;28;20561;-67
2022/11/25 04:52:05;;;;;;;7.70;3.15;;;26.80;62.60;;;;;;4989216;28;20030;-67
2022/11/25 04:54:32;;;;;;;9.20;3.72;;;26.80;61.80;;;;;;4989424;28;20046;-68
2022/11/25 04:57:00;;;;;;;8.00;3.30;;;26.70;63.50;;;;;;4988816;28;20030;-68
2022/11/25 04:59:39;;;;;;;7.32;4.13;;;27.00;62.30;;;;;;4989205;28;20511;-67
2022/11/25 05:02:13;;;;;;;8.05;3.13;;;26.70;62.00;;;;;;4989199;28;20026;-66
2022/11/25 05:04:42;;;;;;;10.82;3.28;;;26.40;63.00;;;;;;4989103;28;20088;-67
2022/11/25 05:07:09;;;;;;;8.55;2.97;;;26.40;63.10;;;;;;4988925;28;20030;-67
2022/11/25 05:09:37;;;;;;;10.15;3.50;;;26.10;64.20;;;;;;4988771;28;20034;-68
2022/11/25 05:12:06;;;;;;;8.68;3.67;;;26.20;63.60;;;;;;4988029;28;20049;-67
2022/11/25 05:14:34;;;;;;;8.02;3.55;;;26.00;64.20;;;;;;4988637;28;20065;-67
2022/11/25 05:17:05;;;;;;;6.90;3.00;;;26.10;63.50;;;;;;4988689;28;20030;-65
2022/11/25 05:19:34;;;;;;;8.50;3.53;;;25.80;63.90;;;;;;4989025;28;20015;-66
2022/11/25 05:22:02;;;;;;;6.28;3.22;;;25.70;64.70;;;;;;4987332;28;20033;-67
2022/11/25 05:24:29;;;;;;;6.28;3.45;;;25.70;63.70;;;;;;4988591;28;20027;-66
2022/11/25 05:26:56;;;;;;;12.90;3.65;;;25.70;65.00;;;;;;4996417;28;20379;-67
2022/11/25 05:29:23;;;;;;;9.27;3.05;;;25.70;64.60;;;;;;5008767;28;20080;-64
2022/11/25 05:31:51;;;;;;;6.38;3.03;;;25.70;65.00;;;;;;5010674;28;20121;-66
2022/11/25 05:34:18;;;;;;;12.13;3.53;;;25.90;65.00;;;;;;5009351;28;20056;-65
2022/11/25 05:36:45;;;;;;;8.25;2.97;;;25.90;64.40;;;;;;5010154;28;20483;-67
2022/11/25 05:39:12;;;;;;;9.65;3.38;;;25.80;64.90;;;;;;5010465;28;20532;-67
2022/11/25 05:41:40;;;;;;;9.45;3.38;;;25.90;65.10;;;;;;5010326;28;20014;-66
2022/11/25 05:44:07;;;;;;;6.75;2.63;;;26.10;65.30;;;;;;5010428;28;20030;-66
2022/11/25 05:46:34;;;;;;;16.45;3.20;;;26.00;63.90;;;;;;5010332;28;20084;-67
2022/11/25 05:49:02;;;;;;;6.28;3.00;;;25.80;64.70;;;;;;5010214;28;20438;-67
2022/11/25 05:51:29;;;;;;;7.53;3.25;;;25.60;65.50;;;;;;5010220;28;20026;-68
2022/11/25 05:53:57;;;;;;;8.68;4.32;;;25.70;65.20;;;;;;5010332;28;20026;-67
2022/11/25 05:56:24;;;;;;;8.07;3.13;;;25.40;65.60;;;;;;5010123;28;20170;-65
2022/11/25 05:58:53;;;;;;;17.23;4.00;;;25.10;67.00;;;;;;5010224;28;20033;-66
2022/11/25 06:01:22;;;;;;;9.57;3.03;;;25.20;67.20;;;;;;5010103;28;20030;-66
2022/11/25 06:03:49;;;;;;;8.85;2.40;;;25.20;67.20;;;;;;5010533;28;20034;-66
2022/11/25 06:06:17;;;;;;;10.13;2.65;;;25.10;67.60;;;;;;5010661;28;20052;-66
2022/11/25 06:08:45;;;;;;;7.80;3.17;;;25.30;66.90;;;;;;5010060;28;20104;-67
2022/11/25 06:11:15;;;;;;;7.28;2.72;;;25.10;67.90;;;;;;5009951;28;20439;-66
2022/11/25 06:13:43;;;;;;;5.53;2.80;;;25.20;68.60;;;;;;5010028;28;20026;-66
2022/11/25 06:16:12;;;;;;;8.27;3.20;;;25.30;67.90;;;;;;5009859;28;20076;-66
2022/11/25 06:18:39;;;;;;;11.18;3.70;;;25.20;68.80;;;;;;5009870;28;20030;-66
2022/11/25 06:21:08;;;;;;;8.30;2.83;;;25.20;69.20;;;;;;5009900;28;20025;-64
2022/11/25 06:23:37;;;;;;;6.32;2.97;;;25.30;69.70;;;;;;5010185;28;20072;-65
2022/11/25 06:26:12;;;;;;;8.65;3.20;;;25.40;69.50;;;;;;5013889;28;20083;-66
2022/11/25 06:28:40;;;;;;;7.68;3.08;;;25.20;69.20;;;;;;5013867;28;20029;-65
2022/11/25 06:31:19;;;;;;;13.50;3.38;;;24.90;70.00;;;;;;5012870;28;20036;-65
2022/11/25 06:33:50;;;;;;;6.40;3.13;;;25.00;70.10;;;;;;5013809;28;20046;-64
2022/11/25 06:36:19;;;;;;;5.65;3.28;;;24.80;71.00;;;;;;5013616;28;20025;-67
2022/11/25 06:38:49;;;;;;;6.45;2.55;;;24.90;70.60;;;;;;5013862;28;20033;-67
2022/11/25 06:41:16;;;;;;;8.25;3.35;;;25.10;69.50;;;;;;5013557;28;20018;-67
2022/11/25 06:43:43;;;;;;;6.43;3.33;;;25.40;68.20;;;;;;5013611;28;20030;-67
2022/11/25 06:46:16;;;;;;;8.07;2.63;;;25.20;68.70;;;;;;5013569;28;20022;-67
2022/11/25 06:48:43;;;;;;;10.30;3.00;;;25.10;68.30;;;;;;5013519;28;20030;-66
2022/11/25 06:51:12;;;;;;;7.28;2.97;;;25.00;70.00;;;;;;5013461;28;20152;-68
2022/11/25 06:53:40;;;;;;;6.95;3.05;;;25.10;69.30;;;;;;5013290;28;20038;-68
2022/11/25 06:56:13;;;;;;;6.00;2.40;;;25.10;69.70;;;;;;5028510;28;20022;-65
2022/11/25 06:58:41;;;;;;;13.65;4.90;;;25.10;69.60;;;;;;5013276;28;20025;-68
2022/11/25 07:01:14;;;;;;;19.67;3.92;;;25.00;69.70;;;;;;5013355;28;20113;-67
2022/11/25 07:03:43;;;;;;;7.07;2.92;;;24.90;69.50;;;;;;5013366;28;20037;-67
2022/11/25 07:06:12;;;;;;;15.93;4.35;;;24.70;70.10;;;;;;5013583;28;20033;-68
2022/11/25 07:08:40;;;;;;;23.10;4.40;;;24.60;71.30;;;;;;5013330;28;20030;-68
2022/11/25 07:11:14;;;;;;;10.95;3.65;;;24.50;71.20;;;;;;5011878;28;20398;-68
2022/11/25 07:13:41;;;;;;;13.07;3.92;;;24.60;70.90;;;;;;5013307;28;20041;-68
2022/11/25 07:16:10;;;;;;;16.17;4.18;;;24.70;70.60;;;;;;5013210;28;20120;-67
2022/11/25 07:18:38;;;;;;;10.60;3.65;;;24.50;71.00;;;;;;5013524;28;20037;-68
2022/11/25 07:21:12;;;;;;;8.35;3.83;;;24.20;71.60;;;;;;5013040;28;20022;-68
2022/11/25 07:23:40;;;;;;;28.65;5.07;;;24.20;72.30;;;;;;5012962;28;20399;-66
2022/11/25 07:26:10;;;;;;;27.65;6.72;;;24.00;72.90;;;;;;5012814;28;20036;-68
2022/11/25 07:28:39;;;;;;;43.00;4.78;;;23.90;72.80;;;;;;5012950;28;20022;-66
2022/11/25 07:31:07;;;;;;;17.83;4.47;;;23.80;73.10;;;;;;5012849;28;20026;-66
2022/11/25 07:33:35;;;;;;;15.70;4.18;;;23.90;73.90;;;;;;5012471;28;20052;-66
2022/11/25 07:36:05;;;;;;;42.35;6.20;;;23.70;73.70;;;;;;5011290;28;20018;-66
2022/11/25 07:38:33;;;;;;;16.35;2.90;;;23.60;75.20;;;;;;5012716;28;20487;-69
2022/11/25 07:41:08;;;;;;;15.23;3.78;;;23.50;75.70;;;;;;5011464;28;20022;-66
2022/11/25 07:43:36;;;;;;;8.48;2.72;;;23.40;75.30;;;;;;5008915;28;20026;-68
2022/11/25 07:46:23;;;;;;;6.70;3.05;;;23.30;76.10;;;;;;5009381;28;20388;-69
2022/11/25 07:48:51;;;;;;;10.20;2.72;;;23.20;77.00;;;;;;5012135;28;20029;-71
2022/11/25 07:51:23;;;;;;;6.57;2.95;;;23.10;77.90;;;;;;5012714;28;20521;-69
2022/11/25 07:53:53;;;;;;;12.07;3.35;;;22.90;79.30;;;;;;5012466;28;20466;-70
2022/11/25 07:56:20;;;;;;;15.43;3.38;;;22.80;80.10;;;;;;5012289;28;20434;-71
2022/11/25 07:58:48;;;;;;;9.52;3.47;;;22.70;80.70;;;;;;5011913;28;20439;-71
2022/11/25 08:01:17;;;;;;;8.88;2.95;;;22.60;81.70;;;;;;5010485;28;20033;-71
2022/11/25 08:03:46;;;;;;;11.80;3.58;;;22.50;83.00;;;;;;5011379;28;20053;-72
2022/11/25 08:06:16;;;;;;;5.28;2.55;;;22.40;83.80;;;;;;5012105;28;20124;-68
2022/11/25 08:08:44;;;;;;;6.10;2.83;;;22.30;84.30;;;;;;5012063;28;20030;-69
2022/11/25 08:11:20;;;;;;;9.88;2.83;;;22.20;84.80;;;;;;5011327;28;20025;-67
2022/11/25 08:13:47;;;;;;;5.75;2.63;;;22.10;86.00;;;;;;5008164;28;20541;-67
2022/11/25 08:16:17;;;;;;;7.50;3.05;;;21.90;87.00;;;;;;5006551;28;20053;-66
2022/11/25 08:18:44;;;;;;;6.00;3.08;;;21.80;87.40;;;;;;5004691;28;20629;-66
2022/11/25 08:21:13;;;;;;;7.95;2.63;;;21.80;88.70;;;;;;5008046;28;20092;-66
2022/11/25 08:23:42;;;;;;;8.05;2.97;;;21.70;89.20;;;;;;5009375;28;20041;-66
2022/11/25 08:26:13;;;;;;;8.98;2.63;;;21.60;90.00;;;;;;5009018;28;20742;-66
2022/11/25 08:28:40;;;;;;;7.95;3.00;;;21.50;90.20;;;;;;5006924;28;20032;-66
2022/11/25 08:31:11;;;;;;;6.15;2.90;;;21.40;90.80;;;;;;5009046;28;20095;-66
2022/11/25 08:33:38;;;;;;;11.07;3.75;;;21.30;91.20;;;;;;4998295;28;20081;-66
2022/11/25 08:36:06;;;;;;;7.68;3.95;;;21.20;91.70;;;;;;5009378;28;20068;-67
2022/11/25 08:38:34;;;;;;;7.60;2.90;;;21.10;91.90;;;;;;4999339;28;20030;-69
2022/11/25 08:41:02;;;;;;;8.13;2.97;;;21.00;92.20;;;;;;5006118;28;20026;-66
2022/11/25 08:43:29;;;;;;;6.45;3.13;;;20.90;92.70;;;;;;5008999;28;20034;-65
2022/11/25 08:45:56;;;;;;;9.48;3.13;;;20.80;92.90;;;;;;5004006;28;20026;-69
2022/11/25 08:48:24;;;;;;;8.73;2.70;;;20.70;93.20;;;;;;4994142;28;20033;-69
2022/11/25 08:50:54;;;;;;;9.55;3.00;;;20.60;93.50;;;;;;5008848;28;20022;-68
2022/11/25 08:53:22;;;;;;;5.13;2.55;;;20.60;93.60;;;;;;5008127;28;20041;-67
2022/11/25 08:55:49;;;;;;;6.97;3.03;;;20.50;93.80;;;;;;5006700;28;20508;-67
2022/11/25 08:58:16;;;;;;;5.72;3.10;;;20.40;94.10;;;;;;5006652;28;20026;-71
2022/11/25 09:00:45;;;;;;;5.90;2.95;;;20.40;94.30;;;;;;5008111;28;20109;-68
2022/11/25 09:03:12;;;;;;;9.05;3.25;;;20.30;94.50;;;;;;5008604;28;20116;-65
2022/11/25 09:05:42;;;;;;;7.15;2.90;;;20.30;94.60;;;;;;4992886;28;20022;-66
2022/11/25 09:08:10;;;;;;;7.47;3.05;;;20.30;94.90;;;;;;5002231;28;20040;-66
2022/11/25 09:10:38;;;;;;;9.48;2.60;;;20.20;95.20;;;;;;5008488;28;20022;-68
2022/11/25 09:13:06;;;;;;;9.98;3.00;;;20.10;95.40;;;;;;5008509;28;20041;-68
2022/11/25 09:15:33;;;;;;;5.40;2.50;;;20.10;95.60;;;;;;5004009;28;20379;-66
2022/11/25 09:18:03;;;;;;;11.82;4.25;;;20.10;95.70;;;;;;4999140;28;20058;-65
2022/11/25 09:20:32;;;;;;;6.47;3.63;;;20.10;96.00;;;;;;5007428;28;20028;-65
2022/11/25 09:23:01;;;;;;;7.40;2.90;;;20.00;96.30;;;;;;5007562;28;20049;-65
2022/11/25 09:25:29;;;;;;;7.32;3.13;;;20.00;96.70;;;;;;5007241;28;20076;-66
2022/11/25 09:27:57;;;;;;;7.85;3.00;;;19.90;96.90;;;;;;5005754;28;20057;-66
2022/11/25 09:30:25;;;;;;;9.23;3.42;;;19.90;97.20;;;;;;5007462;28;20026;-67
2022/11/25 09:32:53;;;;;;;10.60;3.42;;;19.80;97.40;;;;;;5007952;28;20446;-66
2022/11/25 09:35:22;;;;;;;7.95;3.38;;;19.70;97.80;;;;;;5007495;28;20087;-67
2022/11/25 09:37:50;;;;;;;8.77;3.55;;;19.60;98.00;;;;;;5007534;28;20117;-67
2022/11/25 09:40:56;;;;;;;7.70;3.58;;;19.50;98.40;;;;;;4998376;28;20387;-68
2022/11/25 09:47:10;;;;;;;10.40;4.43;;;19.20;99.90;;;;;;4988339;28;20049;-66
2022/11/25 09:49:56;;;;;;;12.18;4.35;;;19.20;99.90;;;;;;4988574;28;20022;-64
2022/11/25 09:52:52;;;;;;;17.25;5.07;;;19.20;99.90;;;;;;4988108;28;20042;-65
2022/11/25 09:55:25;;;;;;;12.15;4.28;;;19.10;99.90;;;;;;4969667;28;20043;-66
2022/11/25 09:57:58;;;;;;;10.05;4.47;;;19.00;99.90;;;;;;5007592;28;20026;-66
2022/11/25 10:00:31;;;;;;;12.43;4.47;;;19.00;99.90;;;;;;5008075;28;20030;-67
2022/11/25 10:03:05;;;;;;;12.90;5.03;;;18.90;99.90;;;;;;4992069;28;20117;-67
2022/11/25 10:06:07;;;;;;;13.70;4.88;;;18.80;99.90;;;;;;5006759;28;20807;-68
2022/11/25 10:08:39;;;;;;;8.07;4.13;;;18.80;99.90;;;;;;4998162;28;20112;-67
2022/11/25 10:11:44;;;;;;;9.23;4.80;;;18.70;99.90;;;;;;5006870;28;20391;-67
2022/11/25 10:14:26;;;;;;;12.98;6.32;;;18.70;99.90;;;;;;5006856;28;20121;-68
2022/11/25 10:16:56;;;;;;;9.70;4.82;;;18.60;99.90;;;;;;5007521;28;20505;-67
2022/11/25 10:19:46;;;;;;;14.52;5.45;;;18.60;99.90;;;;;;5007569;28;20061;-66
2022/11/25 10:22:27;;;;;;;13.88;5.65;;;18.60;99.90;;;;;;5007457;28;20046;-65
2022/11/25 10:25:11;;;;;;;9.25;4.18;;;18.60;99.90;;;;;;5006714;28;20503;-69
2022/11/25 10:28:05;;;;;;;14.98;4.88;;;18.60;99.90;;;;;;5007001;28;20029;-69
2022/11/25 10:30:39;;;;;;;11.65;5.10;;;18.60;99.90;;;;;;5006127;28;20058;-66
2022/11/25 10:33:19;;;;;;;12.32;5.70;;;18.60;99.90;;;;;;5007068;28;20053;-65
2022/11/25 10:35:56;;;;;;;12.07;4.88;;;18.50;99.90;;;;;;5005923;28;20095;-65
2022/11/25 10:38:44;;;;;;;10.20;5.18;;;18.50;99.90;;;;;;5007602;28;20026;-65
2022/11/25 10:41:20;;;;;;;14.88;5.80;;;18.50;99.90;;;;;;5006345;28;20053;-66
2022/11/25 10:43:48;;;;;;;12.95;5.72;;;18.60;99.90;;;;;;5006286;28;20057;-67
2022/11/25 10:46:39;;;;;;;11.48;5.40;;;18.60;99.90;;;;;;5005950;28;20029;-66
2022/11/25 10:49:34;;;;;;;10.27;5.05;;;18.60;99.90;;;;;;5006959;28;20053;-67
2022/11/25 10:52:01;;;;;;;13.83;6.10;;;18.60;99.90;;;;;;4992347;28;20057;-67
2022/11/25 10:54:29;;;;;;;11.48;5.65;;;18.70;99.90;;;;;;5006626;28;20034;-65
2022/11/25 10:56:58;;;;;;;9.70;4.50;;;18.70;99.90;;;;;;5007245;28;20076;-65
2022/11/25 10:59:32;;;;;;;12.25;4.78;;;18.70;99.90;;;;;;5007509;28;20394;-65
2022/11/25 11:02:22;;;;;;;11.15;5.10;;;18.60;99.90;;;;;;5006862;28;20181;-65
2022/11/25 11:05:09;;;;;;;17.92;5.28;;;18.50;99.90;;;;;;5017245;28;20160;-68
2022/11/25 11:07:42;;;;;;;12.02;5.15;;;18.50;99.90;;;;;;4997846;28;20022;-67
2022/11/25 11:10:24;;;;;;;13.25;4.30;;;18.60;99.90;;;;;;4999642;28;20034;-66
2022/11/25 11:13:01;;;;;;;9.85;4.50;;;18.60;99.90;;;;;;5004772;28;20038;-67
2022/11/25 11:15:32;;;;;;;10.00;4.13;;;18.60;99.90;;;;;;5010564;28;20121;-66
2022/11/25 11:18:19;;;;;;;13.45;5.50;;;18.60;99.90;;;;;;5010323;28;20065;-66
2022/11/25 11:20:51;;;;;;;10.00;4.18;;;18.60;99.90;;;;;;5010257;28;20018;-67
2022/11/25 11:23:18;;;;;;;10.20;4.28;;;18.60;99.90;;;;;;5010701;28;20383;-67
2022/11/25 11:25:56;;;;;;;9.88;3.97;;;18.60;99.90;;;;;;5009963;28;20439;-65
2022/11/25 11:28:35;;;;;;;12.18;4.00;;;18.70;99.90;;;;;;5008819;28;20042;-66
2022/11/25 11:31:17;;;;;;;6.47;3.90;;;18.60;99.90;;;;;;4990702;28;20038;-66
2022/11/25 11:33:47;;;;;;;13.93;4.65;;;18.70;99.90;;;;;;4996406;28;20050;-64
2022/11/25 11:36:31;;;;;;;11.93;4.05;;;18.70;99.90;;;;;;5010221;28;20014;-64
2022/11/25 11:39:23;;;;;;;8.85;3.50;;;18.70;99.90;;;;;;5008420;28;20068;-64
2022/11/25 11:42:25;;;;;;;15.30;4.15;;;18.70;99.90;;;;;;5009632;28;20077;-64
2022/11/25 11:45:10;;;;;;;9.25;4.40;;;18.70;99.90;;;;;;5009747;28;20116;-65
2022/11/25 11:48:02;;;;;;;8.85;3.28;;;18.70;99.90;;;;;;5009834;28;20030;-65
2022/11/25 11:50:38;;;;;;;11.55;4.32;;;18.70;99.90;;;;;;4999788;28;20042;-66
2022/11/25 11:53:22;;;;;;;5.80;3.40;;;18.60;99.90;;;;;;5009301;28;20394;-66
2022/11/25 11:56:26;;;;;;;10.25;3.72;;;18.60;99.90;;;;;;5008213;28;20128;-65
2022/11/25 11:59:01;;;;;;;8.05;2.83;;;18.50;99.90;;;;;;5009958;28;20030;-65
2022/11/25 12:01:57;;;;;;;8.70;3.45;;;18.50;99.90;;;;;;5009647;28;20022;-66
2022/11/25 12:04:52;;;;;;;11.20;3.13;;;18.40;99.90;;;;;;5009803;28;20028;-65
2022/11/25 12:07:52;;;;;;;4.23;2.60;;;18.40;99.90;;;;;;5009452;28;20111;-65
2022/11/25 12:10:38;;;;;;;12.25;3.30;;;18.40;99.90;;;;;;5002989;28;20042;-67
2022/11/25 12:13:35;;;;;;;6.88;3.38;;;18.40;99.90;;;;;;5009480;28;20045;-65
2022/11/25 12:16:20;;;;;;;8.32;2.75;;;18.30;99.90;;;;;;5003405;28;20029;-64
2022/11/25 12:19:10;;;;;;;7.95;3.20;;;18.30;99.90;;;;;;5011731;28;20687;-65
2022/11/25 12:22:12;;;;;;;6.43;3.38;;;18.20;99.90;;;;;;5011436;28;20030;-65
2022/11/25 12:25:02;;;;;;;6.60;3.28;;;18.20;99.90;;;;;;4986254;28;20034;-66
2022/11/25 12:27:49;;;;;;;9.52;3.20;;;18.10;99.90;;;;;;5010386;28;20026;-66
2022/11/25 12:30:20;;;;;;;9.85;3.85;;;18.10;99.90;;;;;;5011316;28;20026;-65
2022/11/25 12:32:51;;;;;;;9.63;5.10;;;18.10;99.90;;;;;;5011033;28;20069;-65
2022/11/25 12:35:40;;;;;;;11.68;3.42;;;18.10;99.90;;;;;;5011569;28;20025;-65
2022/11/25 12:38:35;;;;;;;9.07;3.40;;;18.10;99.90;;;;;;5011348;28;20034;-66
2022/11/25 12:41:20;;;;;;;8.25;3.85;;;18.20;99.90;;;;;;5004195;28;20022;-67
2022/11/25 12:44:03;;;;;;;9.77;4.35;;;18.20;99.90;;;;;;4991951;28;20028;-67
2022/11/25 12:46:51;;;;;;;11.65;2.90;;;18.20;99.90;;;;;;4994480;28;20080;-66
2022/11/25 12:49:23;;;;;;;8.48;3.53;;;18.30;99.90;;;;;;5007039;28;20569;-66
2022/11/25 12:52:09;;;;;;;9.45;2.97;;;18.30;99.90;;;;;;5010473;28;20033;-66
2022/11/25 12:55:04;;;;;;;7.55;2.72;;;18.20;99.90;;;;;;5010855;28;20033;-66
2022/11/25 12:57:40;;;;;;;;;;;18.10;99.90;;;;;;5011353;28;20321;-65
2022/11/25 13:00:26;;;;;;;7.93;2.80;;;18.00;99.90;;;;;;5025755;28;19909;-65
2022/11/25 13:02:59;;;;;;;7.28;3.25;;;17.90;99.90;;;;;;5011501;28;20017;-65
2022/11/25 13:05:51;;;;;;;5.60;2.65;;;17.90;99.90;;;;;;5011348;28;20049;-66
2022/11/25 13:08:32;;;;;;;6.28;2.58;;;17.70;99.90;;;;;;4996468;28;20295;-67
2022/11/25 13:11:26;;;;;;;10.20;3.70;;;17.60;99.90;;;;;;4991512;28;20023;-65
2022/11/25 13:14:29;;;;;;;8.60;2.67;;;17.40;99.90;;;;;;5010459;28;20034;-66
2022/11/25 13:17:00;;;;;;;8.05;3.08;;;17.20;99.90;;;;;;5026300;28;20113;-67
2022/11/25 13:19:27;;;;;;;8.80;3.10;;;17.10;99.90;;;;;;4996201;28;20034;-65
2022/11/25 13:22:05;;;;;;;6.93;3.10;;;17.10;99.90;;;;;;4991682;28;20113;-65
2022/11/25 13:24:37;;;;;;;9.00;3.88;;;17.00;99.90;;;;;;4991439;28;20372;-65
2022/11/25 13:27:24;;;;;;;9.60;3.97;;;16.90;99.90;;;;;;4993483;28;20018;-65
2022/11/25 13:29:54;;;;;;;10.30;3.53;;;16.90;99.90;;;;;;5009857;28;20058;-67